Time;durP1;ratioP1;P1;durP2;ratioP2;P2;SDS_P1;SDS_P2;PMS_P1;PMS_P2;Temp;Humidity;BMP_temperature;BMP_pressure;BME280_temperature;BME280_humidity;BME280_pressure;Samples;Min_cycle;Max_cycle;Signal;HPM_P1;HPM_P2
2024/02/10 00:00:19;;;;;;;10.93;5.77;;;;;;;8.37;100.00;98962.78;5046606;28;22109;-75
2024/02/10 00:02:48;;;;;;;12.33;6.30;;;;;;;8.42;100.00;98962.16;5040523;28;20407;-75
2024/02/10 00:05:15;;;;;;;11.10;6.30;;;;;;;8.37;100.00;98957.44;5049897;28;20810;-76
2024/02/10 00:07:40;;;;;;;9.90;5.93;;;;;;;8.38;100.00;98950.25;5042081;28;20443;-75
2024/02/10 00:10:06;;;;;;;10.90;6.67;;;;;;;7.32;100.00;98800.56;5044844;28;20526;-76
2024/02/10 00:12:32;;;;;;;17.23;6.43;;;;;;;8.34;100.00;98952.56;5043985;28;20454;-76
2024/02/10 00:14:58;;;;;;;11.50;5.90;;;;;;;7.97;100.00;98897.69;5049656;28;20172;-75
2024/02/10 00:17:26;;;;;;;11.63;6.77;;;;;;;8.38;100.00;98952.91;5046516;28;20223;-75
2024/02/10 00:19:55;;;;;;;14.53;6.93;;;;;;;8.31;100.00;98953.03;5047702;28;20470;-75
2024/02/10 00:22:24;;;;;;;10.40;6.60;;;;;;;8.31;100.00;98957.56;5048511;28;20444;-75
2024/02/10 00:24:50;;;;;;;14.27;6.77;;;;;;;8.25;100.00;98953.97;5047143;28;23354;-75
2024/02/10 00:27:16;;;;;;;13.23;8.60;;;;;;;8.39;100.00;98967.94;5048375;28;20287;-76
2024/02/10 00:29:43;;;;;;;13.77;6.40;;;;;;;8.33;100.00;98966.97;5032330;28;20214;-75
2024/02/10 00:32:10;;;;;;;12.13;6.60;;;;;;;8.37;100.00;98960.13;5047413;28;20476;-75
2024/02/10 00:34:39;;;;;;;11.80;6.90;;;;;;;8.15;100.00;98935.00;5046060;28;20448;-75
2024/02/10 00:37:05;;;;;;;11.37;6.83;;;;;;;7.98;100.00;98888.63;5048344;28;20429;-75
2024/02/10 00:39:31;;;;;;;12.40;6.50;;;;;;;7.86;100.00;98884.09;5045444;28;20880;-74
2024/02/10 00:41:56;;;;;;;18.60;6.63;;;;;;;7.63;100.00;98844.00;5043382;28;20442;-74
2024/02/10 00:44:23;;;;;;;11.77;7.13;;;;;;;7.98;100.00;98897.47;5043254;28;20198;-73
2024/02/10 00:46:48;;;;;;;13.40;7.20;;;;;;;8.33;100.00;98936.75;5046453;28;20195;-74
2024/02/10 00:49:14;;;;;;;12.73;6.97;;;;;;;8.30;100.00;98954.09;5042661;28;20582;-74
2024/02/10 00:51:39;;;;;;;10.17;6.60;;;;;;;8.43;100.00;98971.78;5043461;28;20199;-74
2024/02/10 00:54:05;;;;;;;11.30;7.17;;;;;;;8.33;100.00;98945.59;5045584;28;20184;-74
2024/02/10 00:56:30;;;;;;;10.83;6.80;;;;;;;8.23;100.00;98961.38;5047431;28;20270;-73
2024/02/10 00:58:56;;;;;;;9.80;6.73;;;;;;;8.30;100.00;98956.75;5042964;28;20982;-74
2024/02/10 01:01:21;;;;;;;10.90;6.80;;;;;;;8.31;100.00;98961.03;5042515;28;20187;-74
2024/02/10 01:03:47;;;;;;;11.53;6.97;;;;;;;8.22;100.00;98950.94;5043756;28;20529;-73
2024/02/10 01:06:15;;;;;;;12.40;7.03;;;;;;;8.41;100.00;98970.38;5044174;28;20199;-74
2024/02/10 01:08:48;;;;;;;11.30;6.70;;;;;;;8.29;100.00;98960.44;5046670;28;20442;-74
2024/02/10 01:11:18;;;;;;;11.50;6.80;;;;;;;8.15;100.00;98949.16;5043671;28;20468;-73
2024/02/10 01:13:45;;;;;;;11.27;6.70;;;;;;;8.38;100.00;98967.13;5047346;28;20507;-74
2024/02/10 01:16:14;;;;;;;10.90;6.67;;;;;;;8.37;100.00;98973.47;5031521;28;20441;-74
2024/02/10 01:18:40;;;;;;;10.20;6.67;;;;;;;8.43;100.00;98963.75;5045939;28;20449;-74
2024/02/10 01:21:10;;;;;;;15.07;7.77;;;;;;;8.31;100.00;98971.72;5045102;28;25109;-74
2024/02/10 01:23:42;;;;;;;10.70;7.07;;;;;;;8.21;100.00;98950.09;5049781;28;20195;-74
2024/02/10 01:26:08;;;;;;;11.63;7.00;;;;;;;8.38;100.00;98964.44;5047435;28;20448;-74
2024/02/10 01:28:35;;;;;;;11.60;7.00;;;;;;;8.19;100.00;98960.22;5029681;28;20509;-75
2024/02/10 01:31:07;;;;;;;15.53;7.70;;;;;;;8.15;100.00;98930.47;5044720;28;20466;-76
2024/02/10 01:33:34;;;;;;;10.90;7.10;;;;;;;7.98;100.00;98904.66;5047898;28;20991;-76
2024/02/10 01:35:59;;;;;;;13.27;7.13;;;;;;;7.87;100.00;98914.28;5026797;28;20448;-76
2024/02/10 01:38:26;;;;;;;11.80;7.07;;;;;;;7.52;100.00;98853.63;5029135;28;21087;-76
2024/02/10 01:40:52;;;;;;;12.43;7.30;;;;;;;8.23;100.00;98960.56;5045576;28;20222;-77
2024/02/10 01:43:18;;;;;;;10.60;6.97;;;;;;;7.99;100.00;98943.69;5044183;28;21306;-76
2024/02/10 01:45:45;;;;;;;10.80;6.37;;;;;;;7.43;100.00;98853.13;5024568;28;20468;-76
2024/02/10 01:48:11;;;;;;;11.60;6.87;;;;;;;7.35;100.00;98872.13;5045445;28;20438;-74
2024/02/10 01:50:36;;;;;;;14.77;7.93;;;;;;;7.79;100.00;98930.63;5027404;28;21068;-74
2024/02/10 01:53:04;;;;;;;12.37;7.53;;;;;;;8.14;100.00;98992.13;5048312;28;20207;-73
2024/02/10 01:55:30;;;;;;;10.17;6.40;;;;;;;8.17;100.00;98994.34;5045738;28;20196;-73
2024/02/10 01:58:00;;;;;;;12.20;7.33;;;;;;;7.52;100.00;98922.16;5043439;28;20446;-74
2024/02/10 02:00:26;;;;;;;10.23;6.60;;;;;;;7.98;100.00;98995.44;5041512;28;21278;-74
2024/02/10 02:02:55;;;;;;;11.20;6.60;;;;;;;7.99;100.00;99002.41;5027540;28;20575;-74
2024/02/10 02:05:21;;;;;;;12.33;7.50;;;;;;;8.09;100.00;99016.84;5027623;28;20493;-74
2024/02/10 02:07:50;;;;;;;14.83;7.67;;;;;;;8.09;100.00;99021.38;5041065;28;20449;-74
2024/02/10 02:10:21;;;;;;;12.63;8.57;;;;;;;7.91;100.00;98985.66;5047853;28;20556;-74
2024/02/10 02:12:50;;;;;;;12.47;7.77;;;;;;;8.25;100.00;99018.06;5047812;28;20975;-74
2024/02/10 02:15:17;;;;;;;14.80;7.80;;;;;;;7.91;100.00;98964.31;5047679;28;20964;-73
2024/02/10 02:17:43;;;;;;;12.47;7.00;;;;;;;8.27;100.00;99015.94;5052165;28;20438;-74
2024/02/10 02:20:15;;;;;;;11.90;7.80;;;;;;;7.57;100.00;98877.75;5047141;28;20993;-74
2024/02/10 02:22:49;;;;;;;14.07;7.60;;;;;;;8.24;100.00;98978.22;5048614;28;20183;-73
2024/02/10 02:25:16;;;;;;;12.77;7.90;;;;;;;8.13;100.00;98969.16;5049634;28;20437;-73
2024/02/10 02:27:41;;;;;;;12.00;7.30;;;;;;;7.94;100.00;98917.66;5028035;28;20436;-74
2024/02/10 02:30:07;;;;;;;15.83;7.77;;;;;;;8.20;100.00;98967.19;5051183;28;20464;-74
2024/02/10 02:32:35;;;;;;;13.23;7.33;;;;;;;7.95;100.00;98926.47;5040940;28;20306;-74
2024/02/10 02:35:09;;;;;;;15.33;7.90;;;;;;;8.23;100.00;98993.44;5048656;28;20274;-74
2024/02/10 02:37:36;;;;;;;11.63;7.53;;;;;;;8.10;100.00;98985.59;5044963;28;20449;-74
2024/02/10 02:40:06;;;;;;;12.33;7.90;;;;;;;7.99;100.00;98933.81;5046739;28;20471;-73
2024/02/10 02:42:32;;;;;;;13.00;8.17;;;;;;;8.14;100.00;99000.13;5033263;28;20438;-74
2024/02/10 02:44:59;;;;;;;13.23;8.80;;;;;;;7.87;100.00;98975.69;5027652;28;20492;-74
2024/02/10 02:47:25;;;;;;;13.33;8.00;;;;;;;7.86;100.00;98988.19;5025722;28;20187;-73
2024/02/10 02:49:51;;;;;;;13.43;8.33;;;;;;;7.90;100.00;99008.06;5048318;28;20465;-74
2024/02/10 02:52:16;;;;;;;14.40;7.77;;;;;;;7.99;100.00;98983.72;5055702;28;21063;-74
2024/02/10 02:54:42;;;;;;;13.93;7.70;;;;;;;7.60;100.00;98929.84;5030624;28;20256;-74
2024/02/10 02:57:08;;;;;;;12.60;7.87;;;;;;;8.08;100.00;98985.03;5047894;28;20201;-74
2024/02/10 02:59:36;;;;;;;14.60;8.60;;;;;;;8.13;100.00;98993.19;5048817;28;20547;-74
2024/02/10 03:02:02;;;;;;;11.13;7.20;;;;;;;7.99;100.00;98968.53;5037838;28;20279;-73
2024/02/10 03:04:27;;;;;;;11.30;7.70;;;;;;;8.08;100.00;98979.69;5049915;28;20443;-74
2024/02/10 03:06:54;;;;;;;11.80;7.43;;;;;;;7.02;100.00;98805.88;5035502;28;20454;-76
2024/02/10 03:09:20;;;;;;;12.80;8.00;;;;;;;8.15;100.00;98977.72;5053873;28;20226;-76
2024/02/10 03:11:49;;;;;;;13.20;8.67;;;;;;;8.22;100.00;98991.81;5051322;28;21251;-76
2024/02/10 03:14:14;;;;;;;12.37;7.57;;;;;;;8.20;100.00;98987.72;5049900;28;20196;-76
2024/02/10 03:16:40;;;;;;;13.37;7.80;;;;;;;7.53;100.00;98878.44;5030491;28;20462;-74
2024/02/10 03:19:06;;;;;;;12.77;7.57;;;;;;;8.04;100.00;98978.50;5045661;28;20219;-73
2024/02/10 03:21:35;;;;;;;13.20;8.53;;;;;;;7.77;100.00;98932.69;5046073;28;20444;-73
2024/02/10 03:24:05;;;;;;;11.90;7.83;;;;;;;8.35;100.00;98994.25;5052745;28;20198;-73
2024/02/10 03:26:31;;;;;;;12.40;8.20;;;;;;;8.38;100.00;98991.16;5049006;28;20437;-73
2024/02/10 03:28:58;;;;;;;12.40;7.93;;;;;;;8.14;100.00;98941.38;5044090;28;20460;-74
2024/02/10 03:31:24;;;;;;;13.70;6.77;;;;;;;8.29;100.00;98956.97;5049531;28;20568;-73
2024/02/10 03:33:50;;;;;;;13.23;7.20;;;;;;;8.48;100.00;98971.91;5048648;28;20983;-73
2024/02/10 03:36:15;;;;;;;12.13;7.53;;;;;;;7.59;100.00;98818.84;5051668;28;20508;-73
2024/02/10 03:38:41;;;;;;;12.33;7.90;;;;;;;7.68;100.00;98828.94;5050137;28;20446;-74
2024/02/10 03:41:10;;;;;;;10.90;7.17;;;;;;;8.57;100.00;98964.38;5052115;28;20184;-73
2024/02/10 03:43:38;;;;;;;11.43;6.40;;;;;;;8.52;100.00;98962.38;5051800;28;20187;-74
2024/02/10 03:46:04;;;;;;;12.57;7.50;;;;;;;8.50;100.00;98960.97;5047927;28;20434;-73
2024/02/10 03:48:29;;;;;;;12.30;6.93;;;;;;;8.31;100.00;98906.81;5049187;28;20433;-74
2024/02/10 03:50:55;;;;;;;16.37;6.60;;;;;;;8.49;100.00;98954.00;5051648;28;20745;-74
2024/02/10 03:53:20;;;;;;;15.77;7.30;;;;;;;8.15;100.00;98890.41;5049008;28;20203;-74
2024/02/10 03:55:46;;;;;;;13.27;6.90;;;;;;;8.44;100.00;98935.19;5050332;28;20198;-74
2024/02/10 03:58:16;;;;;;;11.20;7.50;;;;;;;8.63;100.00;98954.63;5047242;28;20184;-74
2024/02/10 04:00:43;;;;;;;12.23;7.40;;;;;;;8.30;100.00;98914.03;5046940;28;20469;-74
2024/02/10 04:03:09;;;;;;;13.00;7.30;;;;;;;8.47;100.00;98919.50;5050304;28;20797;-74
2024/02/10 04:05:39;;;;;;;10.20;6.90;;;;;;;8.12;100.00;98869.50;5049417;28;20440;-74
2024/02/10 04:08:07;;;;;;;11.77;6.60;;;;;;;8.28;100.00;98889.38;5051296;28;20434;-74
2024/02/10 04:10:32;;;;;;;12.20;7.10;;;;;;;8.59;100.00;98948.91;5043902;28;20485;-74
2024/02/10 04:12:58;;;;;;;13.37;7.00;;;;;;;7.87;100.00;98821.66;5032292;28;20515;-74
2024/02/10 04:15:23;;;;;;;11.00;7.43;;;;;;;7.88;100.00;98841.16;5050122;28;20198;-74
2024/02/10 04:17:55;;;;;;;15.40;7.90;;;;;;;8.39;100.00;98933.22;5047970;28;20187;-74
2024/02/10 04:20:22;;;;;;;12.60;6.93;;;;;;;8.43;100.00;98936.25;5051703;28;20712;-74
2024/02/10 04:22:51;;;;;;;12.00;6.47;;;;;;;8.57;100.00;98934.97;5050001;28;20438;-74
2024/02/10 04:25:16;;;;;;;10.47;5.90;;;;;;;8.55;100.00;98945.06;5052971;28;20429;-74
2024/02/10 04:27:42;;;;;;;13.90;7.43;;;;;;;7.81;100.00;98830.59;5048653;28;20437;-74
2024/02/10 04:30:10;;;;;;;12.40;7.13;;;;;;;8.30;100.00;98898.00;5037242;28;20759;-73
2024/02/10 04:32:42;;;;;;;13.70;7.53;;;;;;;8.66;100.00;98962.16;5047265;28;20219;-74
2024/02/10 04:35:09;;;;;;;14.40;7.30;;;;;;;8.66;100.00;98960.28;5048953;28;20460;-73
2024/02/10 04:37:35;;;;;;;14.70;6.93;;;;;;;8.64;100.00;98959.72;5041656;28;20485;-74
2024/02/10 04:40:02;;;;;;;15.83;5.90;;;;;;;8.07;100.00;98868.56;5047629;28;20457;-74
2024/02/10 04:42:28;;;;;;;11.53;6.70;;;;;;;8.21;100.00;98880.66;5048106;28;20425;-74
2024/02/10 04:44:59;;;;;;;12.47;6.67;;;;;;;8.63;100.00;98962.63;5050828;28;20455;-74
2024/02/10 04:47:25;;;;;;;12.30;7.03;;;;;;;8.70;100.00;98960.63;5051617;28;20851;-74
2024/02/10 04:49:52;;;;;;;13.40;7.07;;;;;;;8.30;100.00;98930.06;5048810;28;20912;-74
2024/02/10 04:52:18;;;;;;;11.67;7.40;;;;;;;8.68;100.00;98960.88;5049909;28;20476;-74
2024/02/10 04:54:44;;;;;;;16.00;6.80;;;;;;;7.74;100.00;98837.88;5043571;28;20449;-74
2024/02/10 04:57:10;;;;;;;13.60;7.03;;;;;;;8.22;100.00;98897.53;5046488;28;20476;-73
2024/02/10 04:59:35;;;;;;;17.20;7.63;;;;;;;7.92;100.00;98859.13;5046489;28;20572;-73
2024/02/10 05:02:02;;;;;;;14.00;7.50;;;;;;;8.33;100.00;98936.75;5044114;28;20187;-74
2024/02/10 05:04:27;;;;;;;12.53;6.73;;;;;;;8.58;100.00;98953.44;5048019;28;20188;-74
2024/02/10 05:06:56;;;;;;;10.77;6.53;;;;;;;8.57;100.00;98957.16;5049303;28;20445;-73
2024/02/10 05:09:22;;;;;;;12.70;7.70;;;;;;;7.98;100.00;98867.28;5044838;28;20221;-73
2024/02/10 05:11:48;;;;;;;15.30;7.53;;;;;;;8.68;100.00;98973.41;5027863;28;20983;-74
2024/02/10 05:14:13;;;;;;;10.23;6.60;;;;;;;7.89;100.00;98867.63;5046552;28;20438;-73
2024/02/10 05:16:38;;;;;;;10.87;7.03;;;;;;;8.58;100.00;98974.81;5049073;28;20375;-74
2024/02/10 05:19:04;;;;;;;14.80;8.20;;;;;;;8.55;100.00;98966.44;5048711;28;20211;-74
2024/02/10 05:21:32;;;;;;;11.97;7.60;;;;;;;8.27;100.00;98914.44;5041036;28;20183;-73
2024/02/10 05:24:05;;;;;;;15.07;7.47;;;;;;;8.36;100.00;98937.13;5044774;28;20439;-74
2024/02/10 05:26:38;;;;;;;11.27;6.80;;;;;;;8.65;100.00;98977.38;5048341;28;21014;-74
2024/02/10 05:29:07;;;;;;;11.17;7.13;;;;;;;8.69;100.00;98970.53;5049656;28;26182;-74
2024/02/10 05:31:36;;;;;;;12.47;6.97;;;;;;;8.53;100.00;98971.19;5051395;28;20834;-74
2024/02/10 05:34:06;;;;;;;14.40;6.90;;;;;;;8.57;100.00;98980.41;5049359;28;20440;-74
2024/02/10 05:36:35;;;;;;;11.83;6.90;;;;;;;7.89;100.00;98872.94;5049378;28;20445;-73
2024/02/10 05:39:02;;;;;;;12.10;7.40;;;;;;;8.51;100.00;98986.66;5049681;28;20465;-73
2024/02/10 05:41:28;;;;;;;12.27;6.53;;;;;;;8.10;100.00;98903.66;5049416;28;20652;-73
2024/02/10 05:43:54;;;;;;;12.77;7.03;;;;;;;8.59;100.00;98980.97;5035012;28;22778;-74
2024/02/10 05:46:19;;;;;;;14.07;7.33;;;;;;;7.86;100.00;98865.41;5050924;28;20449;-73
2024/02/10 05:48:45;;;;;;;14.77;7.57;;;;;;;8.55;100.00;98974.47;5051714;28;20262;-74
2024/02/10 05:51:11;;;;;;;11.60;7.70;;;;;;;8.11;100.00;98920.47;5045701;28;20192;-74
2024/02/10 05:53:37;;;;;;;15.80;8.37;;;;;;;8.43;100.00;98965.63;5049468;28;20480;-73
2024/02/10 05:56:03;;;;;;;12.00;6.67;;;;;;;8.47;100.00;98966.78;5057084;28;20183;-74
2024/02/10 05:58:29;;;;;;;13.90;8.00;;;;;;;8.02;100.00;98903.19;5050540;28;20805;-73
2024/02/10 06:00:55;;;;;;;12.53;7.77;;;;;;;8.43;100.00;98969.09;5049170;28;20448;-74
2024/02/10 06:03:21;;;;;;;11.70;7.47;;;;;;;8.14;100.00;98942.19;5051764;28;20440;-74
2024/02/10 06:05:47;;;;;;;13.20;7.83;;;;;;;8.31;100.00;98962.91;5052177;28;20571;-74
2024/02/10 06:08:13;;;;;;;14.57;7.90;;;;;;;8.28;100.00;98953.50;5052378;28;20440;-73
2024/02/10 06:10:42;;;;;;;12.67;7.63;;;;;;;8.52;100.00;98988.28;5052673;28;20196;-74
2024/02/10 06:13:07;;;;;;;13.03;7.77;;;;;;;8.45;100.00;98984.91;5054654;28;20196;-74
2024/02/10 06:15:33;;;;;;;11.87;8.10;;;;;;;8.42;100.00;98988.03;5054539;28;20489;-74
2024/02/10 06:18:00;;;;;;;13.90;8.07;;;;;;;8.42;100.00;99006.72;5053684;28;20711;-74
2024/02/10 06:20:26;;;;;;;14.80;8.83;;;;;;;7.81;100.00;98913.34;5036133;28;20215;-73
2024/02/10 06:22:55;;;;;;;17.63;9.40;;;;;;;7.82;100.00;98908.81;5055976;28;20506;-74
2024/02/10 06:25:25;;;;;;;14.43;8.53;;;;;;;8.27;100.00;98991.09;5055029;28;20188;-74
2024/02/10 06:27:55;;;;;;;15.80;8.17;;;;;;;8.03;100.00;98953.66;5055671;28;20436;-74
2024/02/10 06:30:27;;;;;;;18.57;9.37;;;;;;;8.08;100.00;98969.81;5045985;28;21004;-73
2024/02/10 06:32:55;;;;;;;12.93;8.00;;;;;;;8.16;100.00;98960.69;5039906;28;20525;-74
2024/02/10 06:35:20;;;;;;;17.80;8.90;;;;;;;8.06;100.00;98963.06;5052899;28;20536;-73
2024/02/10 06:37:47;;;;;;;14.90;8.37;;;;;;;7.92;100.00;98955.25;5052730;28;20502;-74
2024/02/10 06:40:14;;;;;;;15.00;8.80;;;;;;;8.40;100.00;99041.69;5054170;28;20204;-74
2024/02/10 06:42:42;;;;;;;13.30;8.30;;;;;;;7.75;100.00;98946.25;5053426;28;20516;-73
2024/02/10 06:45:13;;;;;;;15.63;8.60;;;;;;;8.37;100.00;99048.28;5037462;28;20438;-74
2024/02/10 06:47:43;;;;;;;12.50;8.00;;;;;;;8.41;100.00;99050.53;5049008;28;20442;-74
2024/02/10 06:50:11;;;;;;;15.77;8.80;;;;;;;7.70;100.00;98920.25;5032838;28;20457;-74
2024/02/10 06:52:37;;;;;;;17.80;8.57;;;;;;;8.47;100.00;99053.09;5051983;28;20975;-74
2024/02/10 06:55:04;;;;;;;13.40;8.57;;;;;;;7.91;100.00;98980.31;5053473;28;20446;-74
2024/02/10 06:57:31;;;;;;;14.90;8.70;;;;;;;7.83;100.00;98959.28;5053427;28;20433;-74
2024/02/10 06:59:57;;;;;;;15.93;8.60;;;;;;;8.06;100.00;99011.94;5053899;28;20532;-74
2024/02/10 07:02:25;;;;;;;14.47;8.77;;;;;;;8.26;100.00;99035.69;5048466;28;20584;-74
2024/02/10 07:04:52;;;;;;;13.33;8.90;;;;;;;8.04;100.00;98995.34;5036409;28;20183;-74
2024/02/10 07:07:21;;;;;;;17.93;9.13;;;;;;;7.87;100.00;98994.38;5054189;28;20430;-74
2024/02/10 07:09:46;;;;;;;13.53;7.80;;;;;;;8.47;100.00;99069.13;5052985;28;20572;-74
2024/02/10 07:12:11;;;;;;;12.70;8.47;;;;;;;8.51;100.00;99083.69;5032044;28;20806;-73
2024/02/10 07:14:38;;;;;;;12.63;8.47;;;;;;;8.28;100.00;99044.31;5034679;28;20249;-74
2024/02/10 07:17:04;;;;;;;14.33;8.00;;;;;;;8.02;100.00;99005.44;5049994;28;20179;-74
2024/02/10 07:19:35;;;;;;;14.60;9.57;;;;;;;8.59;100.00;99088.69;5046757;28;20990;-73
2024/02/10 07:22:01;;;;;;;15.70;8.43;;;;;;;8.65;100.00;99086.97;5044601;28;20182;-73
2024/02/10 07:24:27;;;;;;;15.23;10.27;;;;;;;8.48;100.00;99065.44;5049438;28;20525;-74
2024/02/10 07:26:56;;;;;;;11.13;8.80;;;;;;;8.07;100.00;98994.06;5050101;28;20442;-74
2024/02/10 07:29:25;;;;;;;12.33;8.50;;;;;;;8.23;100.00;99040.69;5048359;28;20348;-74
2024/02/10 07:31:50;;;;;;;14.77;9.37;;;;;;;8.59;100.00;99088.69;5047501;28;20472;-74
2024/02/10 07:34:17;;;;;;;16.80;10.47;;;;;;;8.11;100.00;99004.06;5049721;28;20815;-74
2024/02/10 07:36:43;;;;;;;16.47;9.50;;;;;;;8.62;100.00;99095.44;5050055;28;20187;-74
2024/02/10 07:39:14;;;;;;;17.20;9.90;;;;;;;8.64;100.00;99090.66;5031190;28;20458;-74
2024/02/10 07:41:39;;;;;;;13.60;10.00;;;;;;;8.42;100.00;99050.31;5027485;28;20671;-74
2024/02/10 07:44:12;;;;;;;13.27;8.50;;;;;;;7.82;100.00;98948.84;5048962;28;20437;-73
2024/02/10 07:46:38;;;;;;;13.57;8.87;;;;;;;8.70;100.00;99097.75;5030682;28;20621;-74
2024/02/10 07:49:06;;;;;;;13.07;8.90;;;;;;;8.17;100.00;99018.38;5046685;28;20457;-73
2024/02/10 07:51:32;;;;;;;13.13;9.50;;;;;;;8.49;100.00;99076.94;5051218;28;20191;-74
2024/02/10 07:54:00;;;;;;;15.00;9.17;;;;;;;8.57;100.00;99096.13;5034134;28;23057;-74
2024/02/10 07:56:29;;;;;;;12.57;9.50;;;;;;;7.83;100.00;98983.31;5051098;28;20437;-74
2024/02/10 07:58:58;;;;;;;15.27;9.80;;;;;;;8.03;100.00;99019.59;5050404;28;20464;-73
2024/02/10 08:01:25;;;;;;;15.20;9.00;;;;;;;8.36;100.00;99070.72;5052121;28;20845;-73
2024/02/10 08:03:54;;;;;;;17.77;10.33;;;;;;;8.46;100.00;99090.75;5046107;28;20542;-74
2024/02/10 08:06:26;;;;;;;13.90;10.40;;;;;;;8.63;100.00;99114.97;5050005;28;20760;-73
2024/02/10 08:08:56;;;;;;;16.63;10.83;;;;;;;8.70;100.00;99140.53;5052464;28;20511;-74
2024/02/10 08:11:22;;;;;;;18.40;11.13;;;;;;;8.76;100.00;99150.31;5050221;28;20951;-74
2024/02/10 08:13:51;;;;;;;13.93;10.00;;;;;;;8.74;100.00;99144.41;5049346;28;20441;-74
2024/02/10 08:16:21;;;;;;;20.73;10.27;;;;;;;8.64;100.00;99112.06;5047590;28;20442;-74
2024/02/10 08:18:49;;;;;;;15.87;10.23;;;;;;;7.56;100.00;98976.69;5050675;28;20441;-74
2024/02/10 08:21:17;;;;;;;15.30;10.38;;;;;;;8.59;100.00;99135.97;5044162;28;20899;-74
2024/02/10 08:23:52;;;;;;;16.27;10.67;;;;;;;7.85;100.00;99031.94;5048849;28;20211;-74
2024/02/10 08:26:20;;;;;;;13.30;9.63;;;;;;;8.58;100.00;99153.88;5046566;28;20426;-74
2024/02/10 08:28:51;;;;;;;14.67;9.50;;;;;;;8.14;100.00;99067.72;5048935;28;20955;-74
2024/02/10 08:31:18;;;;;;;18.07;9.73;;;;;;;8.60;100.00;99140.28;5050197;28;20486;-74
2024/02/10 08:33:49;;;;;;;13.90;9.57;;;;;;;8.29;100.00;99099.34;5048578;28;20442;-74
2024/02/10 08:36:16;;;;;;;14.47;10.03;;;;;;;7.98;100.00;99065.66;5047169;28;20948;-74
2024/02/10 08:38:44;;;;;;;12.43;8.93;;;;;;;8.59;100.00;99155.50;5038281;28;20438;-73
2024/02/10 08:41:14;;;;;;;13.13;9.53;;;;;;;8.82;100.00;99178.84;5045500;28;20820;-73
2024/02/10 08:43:47;;;;;;;14.80;9.10;;;;;;;8.74;100.00;99163.13;5048261;28;20955;-73
2024/02/10 08:46:15;;;;;;;15.07;10.37;;;;;;;8.35;100.00;99097.63;5034397;28;20437;-73
2024/02/10 08:48:44;;;;;;;15.10;10.13;;;;;;;8.98;100.00;99177.34;5025878;28;20976;-73
2024/02/10 08:51:12;;;;;;;14.73;9.43;;;;;;;8.94;100.00;99172.69;5049063;28;20968;-73
2024/02/10 08:53:41;;;;;;;14.47;9.60;;;;;;;8.60;100.00;99111.69;5049933;28;20430;-73
2024/02/10 08:56:11;;;;;;;15.50;10.23;;;;;;;8.96;100.00;99165.25;5050081;28;20440;-73
2024/02/10 08:58:40;;;;;;;18.97;10.50;;;;;;;9.02;100.00;99170.50;5031073;28;20517;-73
2024/02/10 09:01:15;;;;;;;14.33;10.00;;;;;;;9.01;100.00;99170.75;5047572;28;20482;-73
2024/02/10 09:03:41;;;;;;;14.03;9.63;;;;;;;9.08;100.00;99184.81;5031449;28;20861;-74
2024/02/10 09:06:07;;;;;;;19.90;10.70;;;;;;;9.12;100.00;99194.03;5050100;28;20828;-73
2024/02/10 09:08:33;;;;;;;16.87;10.60;;;;;;;8.87;100.00;99150.59;5044979;28;20465;-74
2024/02/10 09:10:59;;;;;;;15.30;10.70;;;;;;;9.03;100.00;99177.50;5049165;28;20270;-74
2024/02/10 09:13:25;;;;;;;14.20;10.00;;;;;;;7.81;100.00;98990.75;5048562;28;20444;-73
2024/02/10 09:15:51;;;;;;;17.03;10.80;;;;;;;8.29;100.00;99064.63;5049815;28;20562;-73
2024/02/10 09:18:17;;;;;;;16.47;9.70;;;;;;;9.06;100.00;99192.25;5051984;28;20430;-74
2024/02/10 09:20:42;;;;;;;12.57;9.33;;;;;;;9.07;100.00;99183.19;5052262;28;20211;-74
2024/02/10 09:23:07;;;;;;;17.60;11.33;;;;;;;9.09;100.00;99189.13;5032823;28;20274;-74
2024/02/10 09:25:36;;;;;;;15.83;10.67;;;;;;;8.87;100.00;99171.97;5035050;28;20190;-73
2024/02/10 09:28:04;;;;;;;16.70;11.13;;;;;;;8.68;100.00;99134.63;5047812;28;20179;-74
2024/02/10 09:30:30;;;;;;;15.47;10.20;;;;;;;9.14;100.00;99207.16;5048450;28;20457;-74
2024/02/10 09:32:55;;;;;;;17.60;10.70;;;;;;;9.12;100.00;99196.69;5052302;28;20467;-73
2024/02/10 09:35:23;;;;;;;18.20;10.93;;;;;;;9.09;100.00;99191.81;5051045;28;20183;-73
2024/02/10 09:37:51;;;;;;;13.90;10.43;;;;;;;8.33;100.00;99070.31;5053323;28;20197;-73
2024/02/10 09:40:18;;;;;;;12.80;8.53;;;;;;;9.21;100.00;99203.34;5030484;28;20459;-73
2024/02/10 09:42:49;;;;;;;14.20;10.37;;;;;;;9.23;100.00;99203.13;5047067;28;20448;-73
2024/02/10 09:45:16;;;;;;;15.90;10.23;;;;;;;9.16;100.00;99192.50;5032789;28;20446;-74
2024/02/10 09:47:45;;;;;;;14.53;9.60;;;;;;;8.73;100.00;99124.03;5049837;28;20551;-74
2024/02/10 09:50:14;;;;;;;17.20;10.20;;;;;;;9.07;100.00;99164.47;5050469;28;20464;-75
2024/02/10 09:52:47;;;;;;;15.80;10.37;;;;;;;8.77;100.00;99127.09;5041846;28;21061;-74
2024/02/10 09:55:15;;;;;;;16.10;10.40;;;;;;;9.23;100.00;99185.22;5053213;28;20424;-74
2024/02/10 09:57:46;;;;;;;15.50;10.50;;;;;;;9.37;100.00;99207.19;5052265;28;20432;-74
2024/02/10 10:00:13;;;;;;;15.50;10.33;;;;;;;9.27;100.00;99191.72;5050842;28;20541;-74
2024/02/10 10:02:40;;;;;;;15.20;10.37;;;;;;;9.21;100.00;99186.47;5050129;28;20475;-74
2024/02/10 10:05:06;;;;;;;16.73;10.00;;;;;;;9.34;100.00;99214.88;5028682;28;20440;-74
2024/02/10 10:07:31;;;;;;;16.03;10.00;;;;;;;9.09;100.00;99172.28;5049811;28;20438;-74
2024/02/10 10:09:58;;;;;;;15.60;10.40;;;;;;;9.33;100.00;99207.91;5049881;28;21894;-74
2024/02/10 10:12:25;;;;;;;16.53;10.70;;;;;;;9.35;100.00;99203.94;5047928;28;20207;-74
2024/02/10 10:14:51;;;;;;;14.00;10.40;;;;;;;9.33;100.00;99203.34;5036444;28;20507;-74
2024/02/10 10:17:16;;;;;;;16.77;10.20;;;;;;;9.32;100.00;99199.06;5054951;28;20431;-74
2024/02/10 10:19:44;;;;;;;14.80;9.80;;;;;;;9.37;100.00;99207.19;5054431;28;20700;-73
2024/02/10 10:22:09;;;;;;;16.23;10.30;;;;;;;9.54;100.00;99226.06;5040869;28;20183;-73
2024/02/10 10:24:36;;;;;;;15.23;10.20;;;;;;;8.99;100.00;99144.22;5052370;28;20433;-74
2024/02/10 10:27:02;;;;;;;12.43;8.40;;;;;;;9.59;100.00;99231.56;5057608;28;20184;-75
2024/02/10 10:29:33;;;;;;;14.00;10.30;;;;;;;9.60;100.00;99222.47;5053436;28;20445;-72
2024/02/10 10:32:01;;;;;;;15.10;10.77;;;;;;;9.50;100.00;99206.19;5053326;28;20816;-75
2024/02/10 10:34:28;;;;;;;13.53;10.20;;;;;;;9.61;100.00;99221.44;5050682;28;20532;-75
2024/02/10 10:36:55;;;;;;;14.17;9.27;;;;;;;9.00;100.00;99123.66;5027138;28;20506;-74
2024/02/10 10:39:22;;;;;;;14.87;10.77;;;;;;;9.60;100.00;99209.06;5030259;28;21149;-75
2024/02/10 10:41:48;;;;;;;16.53;10.50;;;;;;;9.69;100.00;99226.44;5050166;28;20458;-75
2024/02/10 10:44:14;;;;;;;16.50;10.77;;;;;;;9.70;100.00;99219.22;5052645;28;20455;-76
2024/02/10 10:46:40;;;;;;;15.03;10.67;;;;;;;9.63;100.00;99205.97;5023355;28;20438;-76
2024/02/10 10:49:09;;;;;;;13.20;10.63;;;;;;;9.62;100.00;99190.94;5046931;28;20464;-76
2024/02/10 10:51:47;;;;;;;15.07;10.93;;;;;;;9.80;100.00;99214.09;5045590;28;20453;-76
2024/02/10 10:54:17;;;;;;;13.30;10.20;;;;;;;9.84;100.00;99211.78;5034710;28;20445;-76
2024/02/10 10:56:43;;;;;;;19.10;10.93;;;;;;;9.46;100.00;99135.44;5048008;28;20444;-77
2024/02/10 10:59:10;;;;;;;14.47;11.40;;;;;;;9.93;100.00;99199.66;5043329;28;20456;-78
2024/02/10 11:01:38;;;;;;;15.90;10.60;;;;;;;10.08;100.00;99199.16;5048967;28;20297;-76
2024/02/10 11:04:03;;;;;;;17.73;11.73;;;;;;;9.66;100.00;99138.56;5042933;28;20441;-76
2024/02/10 11:06:32;;;;;;;16.97;10.77;;;;;;;9.14;100.00;99050.19;5044850;28;20434;-78
2024/02/10 11:08:58;;;;;;;15.83;10.67;;;;;;;10.11;100.00;99166.56;5049816;28;20678;-76
2024/02/10 11:11:24;;;;;;;12.10;9.03;;;;;;;10.03;100.00;99142.81;5043346;28;24141;-76
2024/02/10 11:13:49;;;;;;;16.10;10.30;;;;;;;10.41;100.00;99195.84;5053849;28;20438;-77
2024/02/10 11:16:15;;;;;;;13.13;10.27;;;;;;;10.23;100.00;99147.75;5053429;28;20203;-78
2024/02/10 11:18:44;;;;;;;14.10;9.70;;;;;;;10.67;100.00;99207.88;5053411;28;20728;-78
2024/02/10 11:21:21;;;;;;;14.10;10.23;;;;;;;10.65;100.00;99206.53;5046608;28;20222;-78
2024/02/10 11:24:07;;;;;;;16.57;9.53;;;;;;;10.63;100.00;99188.78;5034877;28;20532;-79